createdAt,value
2023-05-14T00:00:31.098Z,5.00
2023-05-14T00:02:57.951Z,4.57
2023-05-14T00:05:24.943Z,4.57
2023-05-14T00:07:51.785Z,4.23
2023-05-14T00:10:20.377Z,4.97
2023-05-14T00:12:47.503Z,4.73
2023-05-14T00:15:14.179Z,4.73
2023-05-14T00:17:42.389Z,4.27
2023-05-14T00:20:11.167Z,4.23
2023-05-14T00:22:39.428Z,4.20
2023-05-14T00:25:07.709Z,4.60
2023-05-14T00:27:35.174Z,4.10
2023-05-14T00:30:02.484Z,4.47
2023-05-14T00:32:29.229Z,4.20
2023-05-14T00:34:55.896Z,4.13
2023-05-14T00:37:22.524Z,4.50
2023-05-14T00:39:49.240Z,4.50
2023-05-14T00:42:15.970Z,3.73
2023-05-14T00:44:42.668Z,4.67
2023-05-14T00:47:09.574Z,4.27
2023-05-14T00:49:36.615Z,4.47
2023-05-14T00:52:03.558Z,4.37
2023-05-14T00:54:30.497Z,4.23
2023-05-14T00:56:57.664Z,4.77
2023-05-14T00:59:24.377Z,4.00
2023-05-14T01:01:51.182Z,4.17
2023-05-14T01:04:18.476Z,3.87
2023-05-14T01:07:13.454Z,3.90
2023-05-14T01:10:05.283Z,3.90
2023-05-14T01:12:57.732Z,4.50
2023-05-14T01:15:30.602Z,3.87
2023-05-14T01:18:13.662Z,3.87
2023-05-14T01:20:40.592Z,3.60
2023-05-14T01:23:08.127Z,4.50
2023-05-14T01:25:35.271Z,4.30
2023-05-14T01:28:18.767Z,3.83
2023-05-14T01:30:52.011Z,4.40
2023-05-14T01:33:19.618Z,3.80
2023-05-14T01:35:48.341Z,4.33
2023-05-14T01:38:17.888Z,4.10
2023-05-14T01:40:46.050Z,3.90
2023-05-14T01:43:13.388Z,4.17
2023-05-14T01:45:41.433Z,4.07
2023-05-14T01:48:08.167Z,4.00
2023-05-14T01:50:34.873Z,3.57
2023-05-14T01:53:01.581Z,3.67
2023-05-14T01:55:28.197Z,3.77
2023-05-14T01:57:54.944Z,3.63
2023-05-14T02:00:24.516Z,3.60
2023-05-14T02:02:51.564Z,4.23
2023-05-14T02:05:18.695Z,3.47
2023-05-14T02:07:45.345Z,4.13
2023-05-14T02:10:12.056Z,3.97
2023-05-14T02:12:38.699Z,3.93
2023-05-14T02:15:05.996Z,3.50
2023-05-14T02:17:33.232Z,3.80
2023-05-14T02:19:59.888Z,3.83
2023-05-14T02:22:26.638Z,3.67
2023-05-14T02:24:53.291Z,3.23
2023-05-14T02:27:20.104Z,3.83
2023-05-14T02:29:47.870Z,4.13
2023-05-14T02:32:14.547Z,4.90
2023-05-14T02:34:41.241Z,4.50
2023-05-14T02:37:07.850Z,4.37
2023-05-14T02:39:34.525Z,4.37
2023-05-14T02:42:01.170Z,4.10
2023-05-14T02:44:27.806Z,4.40
2023-05-14T02:46:54.525Z,3.93
2023-05-14T02:49:21.619Z,4.00
2023-05-14T02:51:48.262Z,4.30
2023-05-14T02:54:16.439Z,4.40
2023-05-14T02:56:43.285Z,4.20
2023-05-14T02:59:09.958Z,4.23
2023-05-14T03:01:37.157Z,3.70
2023-05-14T03:04:04.488Z,3.67
2023-05-14T03:06:31.593Z,4.00
2023-05-14T03:08:58.207Z,4.07
2023-05-14T03:11:25.443Z,4.17
2023-05-14T03:13:52.240Z,3.97
2023-05-14T03:16:18.945Z,3.93
2023-05-14T03:18:45.623Z,3.97
2023-05-14T03:21:12.965Z,4.30
2023-05-14T03:23:39.833Z,3.87
2023-05-14T03:26:06.553Z,3.90
2023-05-14T03:28:33.616Z,4.60
2023-05-14T03:31:00.940Z,4.00
2023-05-14T03:33:28.050Z,4.67
2023-05-14T03:35:54.692Z,4.50
2023-05-14T03:38:21.405Z,4.27
2023-05-14T03:40:48.110Z,4.00
2023-05-14T03:43:14.892Z,4.50
2023-05-14T03:45:42.397Z,4.10
2023-05-14T03:48:09.232Z,4.70
2023-05-14T03:50:37.241Z,4.33
2023-05-14T03:53:03.870Z,4.40
2023-05-14T03:55:30.555Z,4.30
2023-05-14T03:57:57.200Z,4.07
2023-05-14T04:00:24.312Z,4.00
2023-05-14T04:02:52.836Z,3.60
2023-05-14T04:05:19.655Z,3.80
2023-05-14T04:07:47.270Z,3.57
2023-05-14T04:10:14.063Z,4.00
2023-05-14T04:12:40.703Z,4.17
2023-05-14T04:15:08.783Z,3.73
2023-05-14T04:17:35.726Z,3.57
2023-05-14T04:20:02.513Z,4.00
2023-05-14T04:22:29.234Z,3.80
2023-05-14T04:24:55.807Z,3.70
2023-05-14T04:27:22.558Z,3.87
2023-05-14T04:29:50.326Z,4.33
2023-05-14T04:32:17.711Z,3.70
2023-05-14T04:34:44.458Z,4.03
2023-05-14T04:37:11.113Z,4.00
2023-05-14T04:39:38.318Z,4.00
2023-05-14T04:42:06.555Z,3.87
2023-05-14T04:44:34.377Z,4.57
2023-05-14T04:47:00.979Z,4.50
2023-05-14T04:49:28.016Z,4.43
2023-05-14T04:51:54.683Z,4.40
2023-05-14T04:54:21.651Z,4.20
2023-05-14T04:56:48.347Z,4.33
2023-05-14T04:59:15.037Z,4.27
2023-05-14T05:01:41.736Z,4.43
2023-05-14T05:04:08.645Z,4.03
2023-05-14T05:06:35.372Z,4.37
2023-05-14T05:09:02.418Z,4.20
2023-05-14T05:11:29.068Z,4.43
2023-05-14T05:13:55.819Z,3.80
2023-05-14T05:16:22.829Z,4.30
2023-05-14T05:18:49.686Z,3.80
2023-05-14T05:21:16.413Z,3.53
2023-05-14T05:23:43.053Z,4.13
2023-05-14T05:26:09.812Z,4.20
2023-05-14T05:28:36.460Z,3.83
2023-05-14T05:31:03.225Z,4.60
2023-05-14T05:33:29.876Z,3.73
2023-05-14T05:35:56.535Z,3.50
2023-05-14T05:38:23.171Z,4.03
2023-05-14T05:40:49.851Z,4.20
2023-05-14T05:43:16.748Z,3.27
2023-05-14T05:45:43.485Z,3.17
2023-05-14T05:48:10.135Z,3.50
2023-05-14T05:50:37.103Z,3.20
2023-05-14T05:53:04.025Z,3.13
2023-05-14T05:55:30.753Z,3.27
2023-05-14T05:57:57.438Z,3.17
2023-05-14T06:00:24.811Z,3.30
2023-05-14T06:02:52.326Z,3.10
2023-05-14T06:05:19.541Z,3.30
2023-05-14T06:07:46.296Z,3.50
2023-05-14T06:10:12.986Z,3.10
2023-05-14T06:12:40.431Z,3.13
2023-05-14T06:15:07.567Z,3.07
2023-05-14T06:17:34.244Z,3.20
2023-05-14T06:20:00.934Z,3.40
2023-05-14T06:22:27.667Z,3.10
2023-05-14T06:24:54.345Z,3.00
2023-05-14T06:27:21.018Z,2.80
2023-05-14T06:29:47.647Z,2.80
2023-05-14T06:32:15.630Z,3.10
2023-05-14T06:34:42.607Z,3.20
2023-05-14T06:37:10.465Z,3.20
2023-05-14T06:39:37.754Z,2.87
2023-05-14T06:42:05.217Z,2.87
2023-05-14T06:44:32.252Z,3.20
2023-05-14T06:46:58.948Z,2.80
2023-05-14T06:49:25.660Z,3.13
2023-05-14T06:51:52.328Z,3.10
2023-05-14T06:54:20.438Z,3.00
2023-05-14T06:56:47.144Z,3.10
2023-05-14T06:59:16.677Z,2.93
2023-05-14T07:01:43.542Z,3.33
2023-05-14T07:04:10.262Z,3.43
2023-05-14T07:06:36.942Z,3.20
2023-05-14T07:09:03.729Z,3.27
2023-05-14T07:11:30.583Z,2.87
2023-05-14T07:13:57.340Z,2.80
2023-05-14T07:16:24.021Z,3.00
2023-05-14T07:18:51.042Z,2.80
2023-05-14T07:21:18.078Z,2.83
2023-05-14T07:23:44.732Z,2.90
2023-05-14T07:26:11.689Z,2.80
2023-05-14T07:28:38.371Z,2.90
2023-05-14T07:31:08.807Z,2.60
2023-05-14T07:33:36.547Z,2.97
2023-05-14T07:36:03.274Z,2.40
2023-05-14T07:38:30.045Z,4.40
2023-05-14T07:40:56.756Z,2.90
2023-05-14T07:43:23.482Z,2.73
2023-05-14T07:45:50.255Z,3.17
2023-05-14T07:48:17.235Z,2.57
2023-05-14T07:50:44.130Z,3.20
2023-05-14T07:53:10.839Z,2.57
2023-05-14T07:55:37.472Z,2.20
2023-05-14T07:58:04.139Z,3.10
2023-05-14T08:00:30.768Z,2.57
2023-05-14T08:02:57.623Z,2.83
2023-05-14T08:05:24.498Z,2.90
2023-05-14T08:07:51.138Z,2.30
2023-05-14T08:10:17.792Z,2.87
2023-05-14T08:12:44.565Z,2.40
2023-05-14T08:15:12.359Z,2.80
2023-05-14T08:17:39.080Z,2.30
2023-05-14T08:20:08.985Z,2.60
2023-05-14T08:22:35.676Z,2.40
2023-05-14T08:25:03.780Z,2.77
2023-05-14T08:27:30.958Z,2.40
2023-05-14T08:29:57.742Z,2.33
2023-05-14T08:32:24.453Z,2.80
2023-05-14T08:34:51.518Z,2.57
2023-05-14T08:37:18.319Z,2.40
2023-05-14T08:39:44.955Z,2.43
2023-05-14T08:42:13.228Z,2.10
2023-05-14T08:44:48.915Z,2.40
2023-05-14T08:47:18.623Z,2.47
2023-05-14T08:49:47.545Z,2.53
2023-05-14T08:52:17.956Z,2.60
2023-05-14T08:54:46.519Z,2.70
2023-05-14T08:57:14.295Z,2.53
2023-05-14T08:59:41.203Z,2.47
2023-05-14T09:02:11.778Z,2.73
2023-05-14T09:04:39.138Z,2.70
2023-05-14T09:07:07.360Z,2.47
2023-05-14T09:09:34.322Z,2.80
2023-05-14T09:12:01.737Z,2.60
2023-05-14T09:14:28.554Z,2.67
2023-05-14T09:16:55.773Z,2.30
2023-05-14T09:19:22.730Z,2.75
2023-05-14T09:21:49.918Z,2.50
2023-05-14T09:24:24.099Z,2.03
2023-05-14T09:26:56.282Z,2.67
2023-05-14T09:29:29.761Z,2.10
2023-05-14T09:31:58.194Z,2.22
2023-05-14T09:34:32.551Z,2.50
2023-05-14T09:37:04.482Z,2.10
2023-05-14T09:39:32.732Z,2.08
2023-05-14T09:41:59.900Z,2.00
2023-05-14T09:44:27.525Z,1.70
2023-05-14T09:46:54.721Z,2.20
2023-05-14T09:49:21.727Z,2.28
2023-05-14T09:51:49.295Z,2.10
2023-05-14T09:54:15.994Z,1.65
2023-05-14T09:56:43.614Z,1.80
2023-05-14T09:59:10.955Z,1.67
2023-05-14T10:01:38.222Z,1.90
2023-05-14T10:04:07.759Z,2.00
2023-05-14T10:06:38.154Z,2.20
2023-05-14T10:09:09.854Z,2.17
2023-05-14T10:11:38.349Z,1.75
2023-05-14T10:14:09.020Z,2.25
2023-05-14T10:16:40.338Z,2.13
2023-05-14T10:19:11.431Z,2.70
2023-05-14T10:21:40.980Z,2.17
2023-05-14T10:24:09.689Z,2.15
2023-05-14T10:26:39.449Z,1.73
2023-05-14T10:29:06.789Z,1.90
2023-05-14T10:31:53.737Z,2.25
2023-05-14T10:34:40.966Z,2.03
2023-05-14T10:37:18.643Z,2.60
2023-05-14T10:39:51.248Z,2.03
2023-05-14T10:42:19.014Z,3.00
2023-05-14T10:44:58.569Z,3.15
2023-05-14T10:47:29.342Z,18.70
2023-05-14T10:49:58.359Z,7.13
2023-05-14T10:52:26.284Z,2.20
2023-05-14T10:54:57.728Z,3.03
2023-05-14T10:57:27.157Z,2.50
2023-05-14T10:59:56.030Z,2.08
2023-05-14T11:02:27.854Z,1.80
2023-05-14T11:05:05.641Z,2.10
2023-05-14T11:07:37.932Z,1.77
2023-05-14T11:10:11.790Z,2.58
2023-05-14T11:12:40.675Z,3.60
2023-05-14T11:15:09.630Z,1.65
2023-05-14T11:17:37.420Z,2.35
2023-05-14T11:20:07.956Z,2.55
2023-05-14T11:22:35.750Z,1.85
2023-05-14T11:25:03.048Z,1.92
2023-05-14T11:27:30.865Z,1.70
2023-05-14T11:29:58.094Z,1.90
2023-05-14T11:32:25.940Z,3.80
2023-05-14T11:34:53.120Z,2.40
2023-05-14T11:37:20.252Z,1.80
2023-05-14T11:39:52.255Z,1.80
2023-05-14T11:42:20.188Z,1.80
2023-05-14T11:44:51.784Z,1.85
2023-05-14T11:47:20.667Z,1.73
2023-05-14T11:49:48.619Z,1.65
2023-05-14T11:52:16.444Z,1.90
2023-05-14T11:54:43.931Z,1.52
2023-05-14T11:57:19.195Z,1.63
2023-05-14T11:59:46.182Z,1.83
2023-05-14T12:02:14.877Z,1.80
2023-05-14T12:04:42.723Z,1.70
2023-05-14T12:07:11.651Z,1.65
2023-05-14T12:09:43.034Z,1.80
2023-05-14T12:12:12.797Z,1.95
2023-05-14T12:14:42.497Z,1.75
2023-05-14T12:17:19.097Z,1.88
2023-05-14T12:19:48.227Z,2.10
2023-05-14T12:22:18.207Z,1.65
2023-05-14T12:24:54.062Z,6.88
2023-05-14T12:27:24.653Z,5.70
2023-05-14T12:30:19.067Z,2.72
2023-05-14T12:32:46.849Z,1.98
2023-05-14T12:35:13.520Z,1.70
2023-05-14T12:37:40.219Z,1.70
2023-05-14T12:40:10.171Z,1.85
2023-05-14T12:42:37.340Z,1.75
2023-05-14T12:45:07.085Z,1.77
2023-05-14T12:47:34.169Z,1.90
2023-05-14T12:50:00.897Z,1.95
2023-05-14T12:52:37.677Z,1.92
2023-05-14T12:55:07.082Z,2.27
2023-05-14T12:57:35.507Z,2.07
2023-05-14T13:00:06.840Z,1.80
2023-05-14T13:02:43.072Z,2.10
2023-05-14T13:05:11.297Z,1.70
2023-05-14T13:07:38.418Z,1.70
2023-05-14T13:10:05.836Z,1.80
2023-05-14T13:12:32.725Z,1.50
2023-05-14T13:14:59.604Z,1.83
2023-05-14T13:17:26.431Z,2.10
2023-05-14T13:19:53.127Z,1.80
2023-05-14T13:22:19.822Z,1.40
2023-05-14T13:24:46.558Z,1.50
2023-05-14T13:27:13.257Z,1.40
2023-05-14T13:29:39.930Z,1.57
2023-05-14T13:32:07.093Z,1.50
2023-05-14T13:34:33.904Z,1.20
2023-05-14T13:37:01.069Z,1.23
2023-05-14T13:39:27.778Z,1.40
2023-05-14T13:41:56.625Z,1.50
2023-05-14T13:44:23.559Z,1.50
2023-05-14T13:46:50.475Z,1.60
2023-05-14T13:49:17.342Z,1.50
2023-05-14T13:51:44.131Z,1.60
2023-05-14T13:54:10.807Z,1.47
2023-05-14T13:56:37.493Z,1.47
2023-05-14T13:59:04.288Z,1.30
2023-05-14T14:01:31.550Z,1.57
2023-05-14T14:03:58.442Z,1.50
2023-05-14T14:06:27.284Z,1.50
2023-05-14T14:08:53.996Z,1.50
2023-05-14T14:11:20.903Z,1.37
2023-05-14T14:13:47.766Z,1.33
2023-05-14T14:16:15.104Z,1.50
2023-05-14T14:18:43.038Z,1.37
2023-05-14T14:21:10.298Z,1.27
2023-05-14T14:23:37.019Z,1.50
2023-05-14T14:26:03.820Z,1.50
2023-05-14T14:28:31.236Z,1.40
2023-05-14T14:30:58.031Z,1.57
2023-05-14T14:33:24.734Z,1.47
2023-05-14T14:35:51.802Z,1.43
2023-05-14T14:38:19.771Z,1.20
2023-05-14T14:40:46.762Z,1.30
2023-05-14T14:43:13.500Z,1.57
2023-05-14T14:45:40.274Z,1.50
2023-05-14T14:48:26.743Z,1.50
2023-05-14T14:50:53.933Z,1.40
2023-05-14T14:53:21.615Z,1.50
2023-05-14T14:55:48.906Z,1.37
2023-05-14T14:58:15.848Z,1.23
2023-05-14T15:00:43.642Z,1.33
2023-05-14T15:03:10.523Z,1.50
2023-05-14T15:05:37.718Z,1.40
2023-05-14T15:08:04.854Z,1.60
2023-05-14T15:10:32.532Z,1.30
2023-05-14T15:12:59.793Z,1.40
2023-05-14T15:15:26.686Z,1.20
2023-05-14T15:17:53.539Z,1.30
2023-05-14T15:20:20.371Z,1.20
2023-05-14T15:22:47.172Z,1.33
2023-05-14T15:25:14.037Z,1.20
2023-05-14T15:27:40.811Z,1.20
2023-05-14T15:30:08.134Z,1.30
2023-05-14T15:32:34.821Z,1.30
2023-05-14T15:35:01.623Z,1.40
2023-05-14T15:37:28.292Z,1.43
2023-05-14T15:39:54.997Z,1.47
2023-05-14T15:42:21.598Z,1.43
2023-05-14T15:44:48.203Z,1.60
2023-05-14T15:47:15.020Z,1.50
2023-05-14T15:49:41.630Z,1.57
2023-05-14T15:52:08.349Z,1.30
2023-05-14T15:54:34.998Z,1.30
2023-05-14T15:57:01.671Z,1.60
2023-05-14T15:59:28.322Z,1.50
2023-05-14T16:01:55.006Z,1.40
2023-05-14T16:04:21.729Z,1.27
2023-05-14T16:06:48.400Z,1.53
2023-05-14T16:09:15.032Z,2.00
2023-05-14T16:11:41.953Z,2.10
2023-05-14T16:14:08.605Z,2.20
2023-05-14T16:16:36.485Z,2.53
2023-05-14T16:19:03.349Z,1.60
2023-05-14T16:21:30.032Z,2.10
2023-05-14T16:23:56.829Z,1.63
2023-05-14T16:26:23.518Z,1.43
2023-05-14T16:28:50.303Z,1.60
2023-05-14T16:31:17.039Z,1.83
2023-05-14T16:33:43.680Z,1.90
2023-05-14T16:36:10.444Z,1.60
2023-05-14T16:38:41.503Z,1.43
2023-05-14T16:41:14.906Z,1.43
2023-05-14T16:43:41.592Z,1.10
2023-05-14T16:46:08.335Z,1.20
2023-05-14T16:48:35.065Z,1.30
2023-05-14T16:51:01.777Z,1.40
2023-05-14T16:53:28.414Z,1.63
2023-05-14T16:55:55.284Z,1.47
2023-05-14T16:58:21.910Z,1.60
2023-05-14T17:00:48.532Z,1.93
2023-05-14T17:03:15.319Z,2.67
2023-05-14T17:05:42.461Z,2.10
2023-05-14T17:08:09.140Z,2.00
2023-05-14T17:10:35.999Z,1.67
2023-05-14T17:13:02.829Z,1.63
2023-05-14T17:15:29.661Z,1.60
2023-05-14T17:17:56.249Z,1.70
2023-05-14T17:20:23.107Z,1.37
2023-05-14T17:22:49.940Z,1.57
2023-05-14T17:25:16.812Z,1.60
2023-05-14T17:27:43.515Z,2.03
2023-05-14T17:30:10.557Z,1.70
2023-05-14T17:32:37.401Z,1.60
2023-05-14T17:35:05.205Z,1.90
2023-05-14T17:37:33.203Z,1.67
2023-05-14T17:39:59.884Z,2.27
2023-05-14T17:42:26.513Z,1.90
2023-05-14T17:44:53.783Z,1.90
2023-05-14T17:47:20.853Z,3.40
2023-05-14T17:49:51.088Z,25.17
2023-05-14T17:52:17.833Z,23.13
2023-05-14T17:54:44.486Z,7.67
2023-05-14T17:57:11.334Z,6.33
2023-05-14T17:59:38.005Z,5.03
2023-05-14T18:02:05.638Z,4.03
2023-05-14T18:04:32.287Z,3.67
2023-05-14T18:07:00.892Z,2.30
2023-05-14T18:09:27.565Z,1.90
2023-05-14T18:11:56.668Z,2.17
2023-05-14T18:14:23.654Z,3.37
2023-05-14T18:16:50.385Z,3.43
2023-05-14T18:19:17.156Z,3.60
2023-05-14T18:21:46.490Z,3.07
2023-05-14T18:24:13.126Z,3.30
2023-05-14T18:26:39.849Z,3.13
2023-05-14T18:29:06.416Z,2.70
2023-05-14T18:31:33.126Z,3.47
2023-05-14T18:33:59.973Z,2.93
2023-05-14T18:36:26.644Z,2.90
2023-05-14T18:38:53.295Z,2.77
2023-05-14T18:41:19.917Z,2.97
2023-05-14T18:43:46.544Z,3.20
2023-05-14T18:46:13.540Z,5.47
2023-05-14T18:48:40.297Z,4.37
2023-05-14T18:51:07.557Z,3.40
2023-05-14T18:53:34.182Z,3.30
2023-05-14T18:56:00.985Z,3.40
2023-05-14T18:58:28.142Z,3.07
2023-05-14T19:00:57.705Z,3.50
2023-05-14T19:03:25.104Z,3.53
2023-05-14T19:05:53.166Z,3.67
2023-05-14T19:08:20.532Z,4.17
2023-05-14T19:10:47.267Z,3.20
2023-05-14T19:13:15.818Z,3.03
2023-05-14T19:15:43.190Z,2.73
2023-05-14T19:18:10.071Z,2.57
2023-05-14T19:20:36.695Z,2.90
2023-05-14T19:23:03.299Z,2.63
2023-05-14T19:25:29.993Z,2.47
2023-05-14T19:27:57.281Z,2.53
2023-05-14T19:30:24.012Z,3.23
2023-05-14T19:32:50.785Z,3.60
2023-05-14T19:35:17.551Z,3.63
2023-05-14T19:37:44.323Z,3.40
2023-05-14T19:40:11.326Z,12.90
2023-05-14T19:42:38.092Z,4.30
2023-05-14T19:45:05.210Z,4.10
2023-05-14T19:47:32.296Z,3.30
2023-05-14T19:49:59.044Z,3.03
2023-05-14T19:52:25.700Z,2.90
2023-05-14T19:54:52.348Z,3.07
2023-05-14T19:57:18.991Z,3.73
2023-05-14T19:59:45.667Z,3.60
2023-05-14T20:02:18.090Z,4.20
2023-05-14T20:04:46.010Z,4.00
2023-05-14T20:07:15.546Z,3.43
2023-05-14T20:09:42.521Z,3.60
2023-05-14T20:12:09.585Z,4.00
2023-05-14T20:14:36.275Z,3.80
2023-05-14T20:17:03.337Z,5.00
2023-05-14T20:19:30.556Z,4.87
2023-05-14T20:21:57.256Z,5.30
2023-05-14T20:24:23.917Z,4.20
2023-05-14T20:26:50.739Z,4.07
2023-05-14T20:29:17.409Z,3.93
2023-05-14T20:31:44.024Z,3.53
2023-05-14T20:34:10.636Z,3.20
2023-05-14T20:36:37.401Z,3.20
2023-05-14T20:39:06.160Z,3.27
2023-05-14T20:41:32.858Z,3.90
2023-05-14T20:43:59.657Z,4.00
2023-05-14T20:46:26.533Z,3.77
2023-05-14T20:48:56.868Z,4.87
2023-05-14T20:51:23.482Z,4.87
2023-05-14T20:53:50.077Z,4.50
2023-05-14T20:56:16.740Z,3.67
2023-05-14T20:58:43.479Z,4.27
2023-05-14T21:01:10.487Z,4.10
2023-05-14T21:03:37.258Z,4.20
2023-05-14T21:06:04.184Z,3.40
2023-05-14T21:08:32.906Z,3.40
2023-05-14T21:10:59.916Z,3.90
2023-05-14T21:13:26.592Z,3.43
2023-05-14T21:15:53.281Z,3.37
2023-05-14T21:18:19.992Z,3.60
2023-05-14T21:20:46.611Z,3.87
2023-05-14T21:23:13.737Z,3.70
2023-05-14T21:25:40.545Z,3.40
2023-05-14T21:28:07.758Z,3.40
2023-05-14T21:30:34.436Z,3.10
2023-05-14T21:33:01.191Z,3.37
2023-05-14T21:35:28.039Z,3.20
2023-05-14T21:37:54.722Z,3.30
2023-05-14T21:40:21.367Z,3.27
2023-05-14T21:42:48.093Z,3.27
2023-05-14T21:45:14.891Z,3.20
2023-05-14T21:47:41.703Z,3.50
2023-05-14T21:50:08.949Z,3.93
2023-05-14T21:52:36.543Z,3.47
2023-05-14T21:55:03.391Z,3.13
2023-05-14T21:57:32.331Z,3.30
2023-05-14T22:00:00.868Z,3.20
2023-05-14T22:02:27.668Z,3.07
2023-05-14T22:04:54.305Z,3.10
2023-05-14T22:07:21.058Z,2.90
2023-05-14T22:09:48.150Z,3.13
2023-05-14T22:12:14.867Z,3.20
2023-05-14T22:14:41.816Z,2.90
2023-05-14T22:17:08.707Z,3.17
2023-05-14T22:19:35.397Z,3.10
2023-05-14T22:22:02.109Z,3.00
2023-05-14T22:24:28.760Z,3.53
2023-05-14T22:26:55.567Z,3.60
2023-05-14T22:29:22.219Z,3.60
2023-05-14T22:31:49.023Z,3.77
2023-05-14T22:34:16.160Z,3.13
2023-05-14T22:36:42.861Z,3.10
2023-05-14T22:39:11.308Z,3.93
2023-05-14T22:41:39.428Z,3.77
2023-05-14T22:44:06.069Z,3.30
2023-05-14T22:46:32.835Z,3.97
2023-05-14T22:49:00.035Z,3.50
2023-05-14T22:51:26.766Z,3.53
2023-05-14T22:53:54.150Z,2.90
2023-05-14T22:56:22.133Z,3.43
2023-05-14T22:58:48.839Z,3.00
2023-05-14T23:01:15.536Z,3.40
2023-05-14T23:03:42.238Z,3.43
2023-05-14T23:06:08.860Z,3.37
2023-05-14T23:08:35.544Z,3.70
2023-05-14T23:11:02.170Z,3.83
2023-05-14T23:13:28.896Z,3.47
2023-05-14T23:15:55.554Z,3.30
2023-05-14T23:18:23.942Z,3.10
2023-05-14T23:20:50.729Z,3.53
2023-05-14T23:23:17.391Z,4.03
2023-05-14T23:25:44.182Z,3.70
2023-05-14T23:28:10.936Z,3.30
2023-05-14T23:30:37.527Z,3.80
2023-05-14T23:33:04.242Z,4.20
2023-05-14T23:35:32.360Z,4.00
2023-05-14T23:37:59.194Z,3.63
2023-05-14T23:40:25.935Z,4.30
2023-05-14T23:42:52.564Z,4.37
2023-05-14T23:45:19.220Z,3.77
2023-05-14T23:47:46.020Z,3.90
2023-05-14T23:50:12.683Z,4.70
2023-05-14T23:52:39.352Z,4.20
2023-05-14T23:55:06.490Z,4.20
2023-05-14T23:57:33.221Z,4.70
2023-05-14T23:59:59.937Z,4.70
